Sharon Springs, KS (67758)

7:46 AM MDT on July 31, 2014 (GMT -0600)
Rattlesnake Ridge (KKSWALLA2) Elev 3311 ft | 38.89 °N, 101.58 °W | Change Station

Current weather conditions updated 2 seconds ago

Clear
Clear
59.9 °F
Feels Like 59.9 °F
N
6.0
Wind Variable Wind from NNW
Gusts 9.0 mph

Today is forecast to be Much Warmer than yesterday.

Today
High -- | Low -- °F
--% Chance of Precip.
Yesterday
High -- | Low -- °F
Precip. -- in
5:47 AM 7:59 PM
Waxing Crescent, 18% visible
Pressure 30.24 in
Visibility 10.0 miles
Clouds Clear
Dew Point 58 °F
Humidity 94%
Rainfall 0.00 in
Snow Depth Not available.
UV 0.0 out of 12
Pollen 6.30 out of 12
Air Quality Not available.
Flu Activity Not available.
METAR KGLD 311253Z AUTO 26007KT 10SM CLR 15/13 A3024

More Conditions Fewer Conditions

Pressure 30.24 in
Visibility 10.0 miles
Clouds Clear
Dew Point 58 °F
Humidity 94%
Rainfall 0.00 in
Snow Depth Not available.
UV 0.0 out of 12
Pollen 6.30 out of 12
Air Quality Not available.
Flu Activity Not available.
METAR KGLD 311253Z AUTO 26007KT 10SM CLR 15/13 A3024

More Conditions Fewer Conditions

10-Day Weather Forecast

Almanac

Astronomy

Jul. 31, 2014 Rise Set
Actual Time 5:47 AM MDT 7:59 PM MDT
Civil Twilight 5:17 AM MDT 8:28 PM MDT
Nautical Twilight 4:40 AM MDT 9:05 PM MDT
Astronomical Twilight 4:00 AM MDT 9:44 PM MDT
Moon 10:13 AM MDT 10:16 PM MDT
Length of Visible Light 15h 11m
Length of Day
14h 11m
Tomorrow will be 1m 54s shorter.
Waxing Crescent, 18% of the Moon is Illuminated
Today
Waxing Crescent
Aug 3
First Quarter
Aug 10
Full
Aug 17
Last Quarter
Aug 25
New

Today's Extremes

State Highs State Lows

Community

WunderPhotos

Upload Photos

1,739,324 photos uploaded!

WunderBlogs® & News

Nearby

Snow Depth

Station Depth Elevation
No new snow has been reported.

Earthquake Activity

City Distance Mag. Time & Date
No recent earthquake activity has been reported nearby.
Minimum magnitude displayed is 2.5.

Coastal Water Temperatures

Place Temperature
No Stations Reporting

Nearby Weather Stations

Station Location Temp. Dew Point Humidity Wind Precip. Elev Updated Type
Rattlesnake Ridge, Wallace, KS 59.9 °F 58 °F 94% NNW  at  6.0 mph 0.00 in / hr 3311 ft 7:46 AM MDT Rapid Fire
AERO B RANCH, Wallace, KS 62.2 °F 58 °F 86% WNW  at  4.0 mph 0.00 in / hr 3430 ft 8:46 AM CDT Rapid Fire
MesoWest MCALAS , Russell Springs, KS 54 °F - - North  at  - 0.00 in / hr 3157 ft 6:25 AM CDT MADIS
Poe, Wallace, KS 63.9 °F 59 °F 85% WNW  at  0.0 mph 0.00 in / hr 3435 ft 8:46 AM CDT Rapid Fire
8NNE of Tribune, Tribune, KS 64.2 °F 58 °F 83% WNW  at  5.0 mph 0.00 in / hr 3609 ft 7:39 AM MDT Normal

Show More Stations Show Fewer Stations